sensor_id;sensor_type;location;lat;lon;timestamp;P1;durP1;ratioP1;P2;durP2;ratioP2
76475;SDS011;65308;50.078;14.854;2023-06-10T00:01:19;12.15;;;9.45;;
76475;SDS011;65308;50.078;14.854;2023-06-10T00:03:47;11.48;;;8.32;;
76475;SDS011;65308;50.078;14.854;2023-06-10T00:06:14;12.35;;;9.02;;
76475;SDS011;65308;50.078;14.854;2023-06-10T00:08:41;10.45;;;8.05;;
76475;SDS011;65308;50.078;14.854;2023-06-10T00:11:07;12.77;;;9.50;;
76475;SDS011;65308;50.078;14.854;2023-06-10T00:13:34;12.50;;;9.02;;
76475;SDS011;65308;50.078;14.854;2023-06-10T00:16:00;11.88;;;9.10;;
76475;SDS011;65308;50.078;14.854;2023-06-10T00:18:29;11.90;;;9.13;;
76475;SDS011;65308;50.078;14.854;2023-06-10T00:20:57;11.05;;;8.05;;
76475;SDS011;65308;50.078;14.854;2023-06-10T00:23:29;10.48;;;7.43;;
76475;SDS011;65308;50.078;14.854;2023-06-10T00:25:57;12.40;;;9.02;;
76475;SDS011;65308;50.078;14.854;2023-06-10T00:28:24;11.20;;;8.80;;
76475;SDS011;65308;50.078;14.854;2023-06-10T00:30:51;10.55;;;8.35;;
76475;SDS011;65308;50.078;14.854;2023-06-10T00:33:17;9.98;;;7.88;;
76475;SDS011;65308;50.078;14.854;2023-06-10T00:35:45;13.35;;;9.40;;
76475;SDS011;65308;50.078;14.854;2023-06-10T00:38:12;12.20;;;8.52;;
76475;SDS011;65308;50.078;14.854;2023-06-10T00:40:40;10.93;;;8.68;;
76475;SDS011;65308;50.078;14.854;2023-06-10T00:43:07;10.75;;;8.20;;
76475;SDS011;65308;50.078;14.854;2023-06-10T00:45:34;10.57;;;7.55;;
76475;SDS011;65308;50.078;14.854;2023-06-10T00:48:00;11.18;;;8.55;;
76475;SDS011;65308;50.078;14.854;2023-06-10T00:50:27;11.60;;;8.35;;
76475;SDS011;65308;50.078;14.854;2023-06-10T00:52:56;11.75;;;9.43;;
76475;SDS011;65308;50.078;14.854;2023-06-10T00:55:23;10.60;;;7.78;;
76475;SDS011;65308;50.078;14.854;2023-06-10T00:57:52;12.20;;;8.40;;
76475;SDS011;65308;50.078;14.854;2023-06-10T01:00:19;12.43;;;7.88;;
76475;SDS011;65308;50.078;14.854;2023-06-10T01:02:46;9.75;;;7.47;;
76475;SDS011;65308;50.078;14.854;2023-06-10T01:05:12;7.90;;;5.88;;
76475;SDS011;65308;50.078;14.854;2023-06-10T01:07:40;7.90;;;5.90;;
76475;SDS011;65308;50.078;14.854;2023-06-10T01:10:15;11.45;;;6.22;;
76475;SDS011;65308;50.078;14.854;2023-06-10T01:12:47;13.38;;;5.70;;
76475;SDS011;65308;50.078;14.854;2023-06-10T01:15:18;9.95;;;5.72;;
76475;SDS011;65308;50.078;14.854;2023-06-10T01:17:53;23.17;;;6.00;;
76475;SDS011;65308;50.078;14.854;2023-06-10T01:20:22;12.35;;;5.95;;
76475;SDS011;65308;50.078;14.854;2023-06-10T01:22:53;9.70;;;6.00;;
76475;SDS011;65308;50.078;14.854;2023-06-10T01:25:20;8.95;;;6.38;;
76475;SDS011;65308;50.078;14.854;2023-06-10T01:27:52;10.88;;;7.25;;
76475;SDS011;65308;50.078;14.854;2023-06-10T01:30:22;10.77;;;7.18;;
76475;SDS011;65308;50.078;14.854;2023-06-10T01:32:55;12.88;;;8.57;;
76475;SDS011;65308;50.078;14.854;2023-06-10T01:35:25;10.82;;;7.43;;
76475;SDS011;65308;50.078;14.854;2023-06-10T01:37:54;10.32;;;7.13;;
76475;SDS011;65308;50.078;14.854;2023-06-10T01:40:24;13.10;;;7.78;;
76475;SDS011;65308;50.078;14.854;2023-06-10T01:42:52;10.73;;;7.20;;
76475;SDS011;65308;50.078;14.854;2023-06-10T01:45:18;13.23;;;8.23;;
76475;SDS011;65308;50.078;14.854;2023-06-10T01:47:45;11.40;;;8.48;;
76475;SDS011;65308;50.078;14.854;2023-06-10T01:50:12;11.40;;;8.25;;
76475;SDS011;65308;50.078;14.854;2023-06-10T01:52:38;12.13;;;7.60;;
76475;SDS011;65308;50.078;14.854;2023-06-10T01:55:06;13.07;;;8.60;;
76475;SDS011;65308;50.078;14.854;2023-06-10T01:57:33;12.23;;;7.60;;
76475;SDS011;65308;50.078;14.854;2023-06-10T02:00:00;9.75;;;7.10;;
76475;SDS011;65308;50.078;14.854;2023-06-10T02:02:28;10.38;;;7.60;;
76475;SDS011;65308;50.078;14.854;2023-06-10T02:04:54;13.48;;;8.05;;
76475;SDS011;65308;50.078;14.854;2023-06-10T02:07:22;9.73;;;7.10;;
76475;SDS011;65308;50.078;14.854;2023-06-10T02:09:48;10.15;;;7.22;;
76475;SDS011;65308;50.078;14.854;2023-06-10T02:12:16;9.45;;;6.70;;
76475;SDS011;65308;50.078;14.854;2023-06-10T02:14:43;9.13;;;6.18;;
76475;SDS011;65308;50.078;14.854;2023-06-10T02:17:09;7.43;;;5.82;;
76475;SDS011;65308;50.078;14.854;2023-06-10T02:19:37;10.00;;;5.97;;
76475;SDS011;65308;50.078;14.854;2023-06-10T02:22:07;8.43;;;6.57;;
76475;SDS011;65308;50.078;14.854;2023-06-10T02:24:35;13.10;;;9.18;;
76475;SDS011;65308;50.078;14.854;2023-06-10T02:27:03;14.38;;;7.60;;
76475;SDS011;65308;50.078;14.854;2023-06-10T02:29:33;11.85;;;8.25;;
76475;SDS011;65308;50.078;14.854;2023-06-10T02:31:59;10.80;;;7.80;;
76475;SDS011;65308;50.078;14.854;2023-06-10T02:34:26;11.20;;;6.75;;
76475;SDS011;65308;50.078;14.854;2023-06-10T02:36:52;8.75;;;6.40;;
76475;SDS011;65308;50.078;14.854;2023-06-10T02:39:19;9.05;;;6.38;;
76475;SDS011;65308;50.078;14.854;2023-06-10T02:41:45;7.72;;;5.93;;
76475;SDS011;65308;50.078;14.854;2023-06-10T02:44:12;6.65;;;5.05;;
76475;SDS011;65308;50.078;14.854;2023-06-10T02:46:40;7.70;;;5.45;;
76475;SDS011;65308;50.078;14.854;2023-06-10T02:49:07;8.48;;;5.80;;
76475;SDS011;65308;50.078;14.854;2023-06-10T02:51:33;7.75;;;5.55;;
76475;SDS011;65308;50.078;14.854;2023-06-10T02:54:00;10.13;;;6.43;;
76475;SDS011;65308;50.078;14.854;2023-06-10T02:56:27;8.90;;;6.60;;
76475;SDS011;65308;50.078;14.854;2023-06-10T02:58:53;10.15;;;6.82;;
76475;SDS011;65308;50.078;14.854;2023-06-10T03:01:20;9.98;;;7.13;;
76475;SDS011;65308;50.078;14.854;2023-06-10T03:03:48;11.18;;;6.57;;
76475;SDS011;65308;50.078;14.854;2023-06-10T03:06:15;10.50;;;5.70;;
76475;SDS011;65308;50.078;14.854;2023-06-10T03:11:10;8.23;;;5.75;;
76475;SDS011;65308;50.078;14.854;2023-06-10T03:13:38;8.13;;;5.43;;
76475;SDS011;65308;50.078;14.854;2023-06-10T03:16:04;7.60;;;5.85;;
76475;SDS011;65308;50.078;14.854;2023-06-10T03:18:31;8.10;;;5.85;;
76475;SDS011;65308;50.078;14.854;2023-06-10T03:20:59;7.60;;;5.88;;
76475;SDS011;65308;50.078;14.854;2023-06-10T03:23:26;9.73;;;6.22;;
76475;SDS011;65308;50.078;14.854;2023-06-10T03:25:54;9.73;;;6.60;;
76475;SDS011;65308;50.078;14.854;2023-06-10T03:28:21;8.27;;;6.10;;
76475;SDS011;65308;50.078;14.854;2023-06-10T03:30:47;9.27;;;5.95;;
76475;SDS011;65308;50.078;14.854;2023-06-10T03:33:14;7.30;;;5.18;;
76475;SDS011;65308;50.078;14.854;2023-06-10T03:35:41;10.02;;;7.00;;
76475;SDS011;65308;50.078;14.854;2023-06-10T03:38:09;8.70;;;6.72;;
76475;SDS011;65308;50.078;14.854;2023-06-10T03:40:36;8.88;;;6.10;;
76475;SDS011;65308;50.078;14.854;2023-06-10T03:43:02;9.77;;;6.28;;
76475;SDS011;65308;50.078;14.854;2023-06-10T03:45:29;10.25;;;7.35;;
76475;SDS011;65308;50.078;14.854;2023-06-10T03:47:55;8.80;;;6.40;;
76475;SDS011;65308;50.078;14.854;2023-06-10T03:50:22;8.73;;;7.30;;
76475;SDS011;65308;50.078;14.854;2023-06-10T03:52:49;10.90;;;7.45;;
76475;SDS011;65308;50.078;14.854;2023-06-10T03:55:18;11.38;;;6.93;;
76475;SDS011;65308;50.078;14.854;2023-06-10T03:57:46;8.63;;;7.20;;
76475;SDS011;65308;50.078;14.854;2023-06-10T04:00:14;8.90;;;7.15;;
76475;SDS011;65308;50.078;14.854;2023-06-10T04:02:41;11.52;;;6.72;;
76475;SDS011;65308;50.078;14.854;2023-06-10T04:05:10;12.43;;;6.55;;
76475;SDS011;65308;50.078;14.854;2023-06-10T04:07:37;9.43;;;6.72;;
76475;SDS011;65308;50.078;14.854;2023-06-10T04:10:06;8.15;;;5.97;;
76475;SDS011;65308;50.078;14.854;2023-06-10T04:12:35;7.45;;;5.20;;
76475;SDS011;65308;50.078;14.854;2023-06-10T04:15:01;8.20;;;5.25;;
76475;SDS011;65308;50.078;14.854;2023-06-10T04:17:28;10.80;;;6.93;;
76475;SDS011;65308;50.078;14.854;2023-06-10T04:19:55;9.10;;;6.18;;
76475;SDS011;65308;50.078;14.854;2023-06-10T04:22:23;7.45;;;5.90;;
76475;SDS011;65308;50.078;14.854;2023-06-10T04:24:49;7.45;;;6.20;;
76475;SDS011;65308;50.078;14.854;2023-06-10T04:27:16;7.80;;;6.18;;
76475;SDS011;65308;50.078;14.854;2023-06-10T04:29:44;7.10;;;6.07;;
76475;SDS011;65308;50.078;14.854;2023-06-10T04:32:11;7.70;;;6.57;;
76475;SDS011;65308;50.078;14.854;2023-06-10T04:34:37;8.43;;;6.40;;
76475;SDS011;65308;50.078;14.854;2023-06-10T04:39:32;8.23;;;6.72;;
76475;SDS011;65308;50.078;14.854;2023-06-10T04:41:58;7.82;;;6.78;;
76475;SDS011;65308;50.078;14.854;2023-06-10T04:44:26;7.60;;;6.50;;
76475;SDS011;65308;50.078;14.854;2023-06-10T04:46:54;9.63;;;7.38;;
76475;SDS011;65308;50.078;14.854;2023-06-10T04:49:21;8.80;;;7.82;;
76475;SDS011;65308;50.078;14.854;2023-06-10T04:51:48;8.10;;;7.15;;
76475;SDS011;65308;50.078;14.854;2023-06-10T04:54:16;7.93;;;7.13;;
76475;SDS011;65308;50.078;14.854;2023-06-10T04:56:43;7.70;;;6.80;;
76475;SDS011;65308;50.078;14.854;2023-06-10T04:59:10;9.23;;;7.35;;
76475;SDS011;65308;50.078;14.854;2023-06-10T05:01:37;9.32;;;7.25;;
76475;SDS011;65308;50.078;14.854;2023-06-10T05:04:06;9.27;;;7.22;;
76475;SDS011;65308;50.078;14.854;2023-06-10T05:06:34;8.88;;;7.97;;
76475;SDS011;65308;50.078;14.854;2023-06-10T05:09:03;8.90;;;7.30;;
76475;SDS011;65308;50.078;14.854;2023-06-10T05:11:30;8.30;;;7.35;;
76475;SDS011;65308;50.078;14.854;2023-06-10T05:13:57;8.32;;;7.53;;
76475;SDS011;65308;50.078;14.854;2023-06-10T05:16:25;9.50;;;8.50;;
76475;SDS011;65308;50.078;14.854;2023-06-10T05:18:51;8.30;;;7.50;;
76475;SDS011;65308;50.078;14.854;2023-06-10T05:21:20;9.20;;;7.40;;
76475;SDS011;65308;50.078;14.854;2023-06-10T05:23:47;8.75;;;7.95;;
76475;SDS011;65308;50.078;14.854;2023-06-10T05:26:13;7.88;;;7.07;;
76475;SDS011;65308;50.078;14.854;2023-06-10T05:28:40;9.05;;;7.43;;
76475;SDS011;65308;50.078;14.854;2023-06-10T05:31:06;8.25;;;7.40;;
76475;SDS011;65308;50.078;14.854;2023-06-10T05:33:33;7.80;;;7.00;;
76475;SDS011;65308;50.078;14.854;2023-06-10T05:36:00;8.43;;;7.15;;
76475;SDS011;65308;50.078;14.854;2023-06-10T05:38:28;8.85;;;7.95;;
76475;SDS011;65308;50.078;14.854;2023-06-10T05:40:54;8.43;;;7.63;;
76475;SDS011;65308;50.078;14.854;2023-06-10T05:43:24;7.75;;;7.05;;
76475;SDS011;65308;50.078;14.854;2023-06-10T05:45:52;9.23;;;8.43;;
76475;SDS011;65308;50.078;14.854;2023-06-10T05:48:18;8.20;;;7.40;;
76475;SDS011;65308;50.078;14.854;2023-06-10T05:50:46;8.43;;;7.60;;
76475;SDS011;65308;50.078;14.854;2023-06-10T05:55:41;7.30;;;6.60;;
76475;SDS011;65308;50.078;14.854;2023-06-10T05:58:08;7.70;;;6.90;;
76475;SDS011;65308;50.078;14.854;2023-06-10T06:00:37;7.80;;;7.10;;
76475;SDS011;65308;50.078;14.854;2023-06-10T06:03:05;10.70;;;8.05;;
76475;SDS011;65308;50.078;14.854;2023-06-10T06:05:32;8.20;;;7.40;;
76475;SDS011;65308;50.078;14.854;2023-06-10T06:08:00;8.13;;;7.43;;
76475;SDS011;65308;50.078;14.854;2023-06-10T06:10:27;9.07;;;7.70;;
76475;SDS011;65308;50.078;14.854;2023-06-10T06:12:55;8.90;;;8.00;;
76475;SDS011;65308;50.078;14.854;2023-06-10T06:15:22;8.52;;;7.72;;
76475;SDS011;65308;50.078;14.854;2023-06-10T06:17:49;8.02;;;7.22;;
76475;SDS011;65308;50.078;14.854;2023-06-10T06:20:17;13.55;;;7.63;;
76475;SDS011;65308;50.078;14.854;2023-06-10T06:22:44;8.80;;;7.20;;
76475;SDS011;65308;50.078;14.854;2023-06-10T06:25:11;8.05;;;7.18;;
76475;SDS011;65308;50.078;14.854;2023-06-10T06:27:38;8.00;;;7.20;;
76475;SDS011;65308;50.078;14.854;2023-06-10T06:30:06;9.25;;;7.22;;
76475;SDS011;65308;50.078;14.854;2023-06-10T06:32:36;7.53;;;6.82;;
76475;SDS011;65308;50.078;14.854;2023-06-10T06:35:07;7.00;;;6.30;;
76475;SDS011;65308;50.078;14.854;2023-06-10T06:40:01;7.55;;;6.78;;
76475;SDS011;65308;50.078;14.854;2023-06-10T06:42:28;8.23;;;7.32;;
76475;SDS011;65308;50.078;14.854;2023-06-10T06:44:56;7.18;;;6.47;;
76475;SDS011;65308;50.078;14.854;2023-06-10T06:47:24;8.70;;;7.35;;
76475;SDS011;65308;50.078;14.854;2023-06-10T06:49:51;8.25;;;7.30;;
76475;SDS011;65308;50.078;14.854;2023-06-10T06:52:18;8.73;;;7.53;;
76475;SDS011;65308;50.078;14.854;2023-06-10T06:54:47;10.48;;;6.93;;
76475;SDS011;65308;50.078;14.854;2023-06-10T06:57:14;9.45;;;7.78;;
76475;SDS011;65308;50.078;14.854;2023-06-10T06:59:41;7.65;;;6.80;;
76475;SDS011;65308;50.078;14.854;2023-06-10T07:02:08;8.77;;;6.55;;
76475;SDS011;65308;50.078;14.854;2023-06-10T07:04:36;8.05;;;6.72;;
76475;SDS011;65308;50.078;14.854;2023-06-10T07:07:04;7.88;;;6.72;;
76475;SDS011;65308;50.078;14.854;2023-06-10T07:09:33;7.63;;;6.82;;
76475;SDS011;65308;50.078;14.854;2023-06-10T07:12:00;9.23;;;7.15;;
76475;SDS011;65308;50.078;14.854;2023-06-10T07:14:27;7.82;;;6.53;;
76475;SDS011;65308;50.078;14.854;2023-06-10T07:16:54;8.23;;;6.90;;
76475;SDS011;65308;50.078;14.854;2023-06-10T07:19:21;8.20;;;7.00;;
76475;SDS011;65308;50.078;14.854;2023-06-10T07:21:49;7.97;;;7.07;;
76475;SDS011;65308;50.078;14.854;2023-06-10T07:24:16;7.90;;;7.10;;
76475;SDS011;65308;50.078;14.854;2023-06-10T07:26:48;8.32;;;7.20;;
76475;SDS011;65308;50.078;14.854;2023-06-10T07:29:14;10.68;;;7.22;;
76475;SDS011;65308;50.078;14.854;2023-06-10T07:31:41;8.30;;;7.07;;
76475;SDS011;65308;50.078;14.854;2023-06-10T07:34:08;10.55;;;8.70;;
76475;SDS011;65308;50.078;14.854;2023-06-10T07:36:35;8.75;;;7.05;;
76475;SDS011;65308;50.078;14.854;2023-06-10T07:39:04;8.95;;;7.28;;
76475;SDS011;65308;50.078;14.854;2023-06-10T07:41:31;8.57;;;6.90;;
76475;SDS011;65308;50.078;14.854;2023-06-10T07:43:57;10.15;;;7.82;;
76475;SDS011;65308;50.078;14.854;2023-06-10T07:46:27;9.40;;;7.10;;
76475;SDS011;65308;50.078;14.854;2023-06-10T07:48:54;8.00;;;6.60;;
76475;SDS011;65308;50.078;14.854;2023-06-10T07:51:21;8.18;;;7.18;;
76475;SDS011;65308;50.078;14.854;2023-06-10T07:53:48;9.23;;;7.13;;
76475;SDS011;65308;50.078;14.854;2023-06-10T07:56:26;8.43;;;7.00;;
76475;SDS011;65308;50.078;14.854;2023-06-10T07:58:53;9.35;;;7.97;;
76475;SDS011;65308;50.078;14.854;2023-06-10T08:01:20;9.38;;;7.65;;
76475;SDS011;65308;50.078;14.854;2023-06-10T08:03:48;7.43;;;6.63;;
76475;SDS011;65308;50.078;14.854;2023-06-10T08:06:18;9.77;;;8.00;;
76475;SDS011;65308;50.078;14.854;2023-06-10T08:08:45;9.10;;;6.40;;
76475;SDS011;65308;50.078;14.854;2023-06-10T08:11:14;9.55;;;7.45;;
76475;SDS011;65308;50.078;14.854;2023-06-10T08:13:42;8.35;;;7.07;;
76475;SDS011;65308;50.078;14.854;2023-06-10T08:16:09;8.95;;;6.93;;
76475;SDS011;65308;50.078;14.854;2023-06-10T08:18:36;7.78;;;6.97;;
76475;SDS011;65308;50.078;14.854;2023-06-10T08:21:02;7.63;;;6.72;;
76475;SDS011;65308;50.078;14.854;2023-06-10T08:23:29;8.10;;;7.05;;
76475;SDS011;65308;50.078;14.854;2023-06-10T08:25:56;6.05;;;5.38;;
76475;SDS011;65308;50.078;14.854;2023-06-10T08:28:23;6.80;;;6.10;;
76475;SDS011;65308;50.078;14.854;2023-06-10T08:30:51;7.55;;;6.50;;
76475;SDS011;65308;50.078;14.854;2023-06-10T08:33:18;7.80;;;6.40;;
76475;SDS011;65308;50.078;14.854;2023-06-10T08:35:45;8.43;;;6.85;;
76475;SDS011;65308;50.078;14.854;2023-06-10T08:38:12;8.70;;;6.75;;
76475;SDS011;65308;50.078;14.854;2023-06-10T08:40:41;8.45;;;7.65;;
76475;SDS011;65308;50.078;14.854;2023-06-10T08:43:14;8.00;;;7.10;;
76475;SDS011;65308;50.078;14.854;2023-06-10T08:45:46;11.18;;;7.95;;
76475;SDS011;65308;50.078;14.854;2023-06-10T08:48:16;8.35;;;7.32;;
76475;SDS011;65308;50.078;14.854;2023-06-10T08:50:45;8.55;;;7.65;;
76475;SDS011;65308;50.078;14.854;2023-06-10T08:53:14;9.88;;;8.13;;
76475;SDS011;65308;50.078;14.854;2023-06-10T08:55:45;9.27;;;8.35;;
76475;SDS011;65308;50.078;14.854;2023-06-10T08:58:17;9.40;;;8.50;;
76475;SDS011;65308;50.078;14.854;2023-06-10T09:00:44;10.30;;;8.98;;
76475;SDS011;65308;50.078;14.854;2023-06-10T09:03:18;11.43;;;9.50;;
76475;SDS011;65308;50.078;14.854;2023-06-10T09:05:46;8.82;;;7.90;;
76475;SDS011;65308;50.078;14.854;2023-06-10T09:08:22;9.98;;;8.18;;
76475;SDS011;65308;50.078;14.854;2023-06-10T09:10:48;9.25;;;8.35;;
76475;SDS011;65308;50.078;14.854;2023-06-10T09:13:23;9.32;;;8.43;;
76475;SDS011;65308;50.078;14.854;2023-06-10T09:15:50;9.38;;;8.13;;
76475;SDS011;65308;50.078;14.854;2023-06-10T09:18:26;8.93;;;7.68;;
76475;SDS011;65308;50.078;14.854;2023-06-10T09:20:54;8.40;;;7.60;;
76475;SDS011;65308;50.078;14.854;2023-06-10T09:23:21;9.25;;;8.35;;
76475;SDS011;65308;50.078;14.854;2023-06-10T09:25:53;8.98;;;8.07;;
76475;SDS011;65308;50.078;14.854;2023-06-10T09:28:22;9.18;;;8.27;;
76475;SDS011;65308;50.078;14.854;2023-06-10T09:30:49;10.18;;;7.80;;
76475;SDS011;65308;50.078;14.854;2023-06-10T09:33:16;9.25;;;7.75;;
76475;SDS011;65308;50.078;14.854;2023-06-10T09:35:47;9.15;;;8.25;;
76475;SDS011;65308;50.078;14.854;2023-06-10T09:38:15;8.45;;;7.38;;
76475;SDS011;65308;50.078;14.854;2023-06-10T09:40:51;9.88;;;8.95;;
76475;SDS011;65308;50.078;14.854;2023-06-10T09:46:15;9.23;;;8.32;;
76475;SDS011;65308;50.078;14.854;2023-06-10T09:48:43;9.55;;;8.63;;
76475;SDS011;65308;50.078;14.854;2023-06-10T09:51:15;10.25;;;9.25;;
76475;SDS011;65308;50.078;14.854;2023-06-10T09:53:43;9.30;;;8.15;;
76475;SDS011;65308;50.078;14.854;2023-06-10T09:56:14;9.13;;;7.80;;
76475;SDS011;65308;50.078;14.854;2023-06-10T09:58:41;10.02;;;9.13;;
76475;SDS011;65308;50.078;14.854;2023-06-10T10:01:09;10.40;;;9.35;;
76475;SDS011;65308;50.078;14.854;2023-06-10T10:03:43;8.75;;;7.85;;
76475;SDS011;65308;50.078;14.854;2023-06-10T10:06:16;12.27;;;11.10;;
76475;SDS011;65308;50.078;14.854;2023-06-10T10:08:43;10.63;;;9.40;;
76475;SDS011;65308;50.078;14.854;2023-06-10T10:11:12;11.30;;;10.20;;
76475;SDS011;65308;50.078;14.854;2023-06-10T10:13:40;8.90;;;7.95;;
76475;SDS011;65308;50.078;14.854;2023-06-10T10:16:09;10.68;;;9.77;;
76475;SDS011;65308;50.078;14.854;2023-06-10T10:18:38;10.55;;;9.45;;
76475;SDS011;65308;50.078;14.854;2023-06-10T10:21:09;10.43;;;9.50;;
76475;SDS011;65308;50.078;14.854;2023-06-10T10:23:41;10.43;;;9.52;;
76475;SDS011;65308;50.078;14.854;2023-06-10T10:26:14;14.60;;;11.25;;
76475;SDS011;65308;50.078;14.854;2023-06-10T10:31:10;15.18;;;10.27;;
76475;SDS011;65308;50.078;14.854;2023-06-10T10:33:45;10.20;;;9.25;;
76475;SDS011;65308;50.078;14.854;2023-06-10T10:36:19;11.38;;;10.32;;
76475;SDS011;65308;50.078;14.854;2023-06-10T10:38:47;11.18;;;10.23;;
76475;SDS011;65308;50.078;14.854;2023-06-10T10:41:14;10.88;;;9.77;;
76475;SDS011;65308;50.078;14.854;2023-06-10T10:43:42;10.65;;;9.65;;
76475;SDS011;65308;50.078;14.854;2023-06-10T10:46:14;10.63;;;9.63;;
76475;SDS011;65308;50.078;14.854;2023-06-10T10:48:51;9.20;;;8.30;;
76475;SDS011;65308;50.078;14.854;2023-06-10T10:51:19;26.38;;;9.57;;
76475;SDS011;65308;50.078;14.854;2023-06-10T10:56:38;8.38;;;6.78;;
76475;SDS011;65308;50.078;14.854;2023-06-10T10:59:06;7.82;;;6.13;;
76475;SDS011;65308;50.078;14.854;2023-06-10T11:01:40;8.88;;;6.28;;
76475;SDS011;65308;50.078;14.854;2023-06-10T11:04:07;8.40;;;6.40;;
76475;SDS011;65308;50.078;14.854;2023-06-10T11:06:34;7.35;;;6.60;;
76475;SDS011;65308;50.078;14.854;2023-06-10T11:09:01;9.20;;;7.05;;
76475;SDS011;65308;50.078;14.854;2023-06-10T11:11:58;10.45;;;7.00;;
76475;SDS011;65308;50.078;14.854;2023-06-10T11:14:28;9.45;;;7.00;;
76475;SDS011;65308;50.078;14.854;2023-06-10T11:16:56;8.05;;;7.07;;
76475;SDS011;65308;50.078;14.854;2023-06-10T11:19:33;10.05;;;7.03;;
76475;SDS011;65308;50.078;14.854;2023-06-10T11:22:02;9.35;;;7.22;;
76475;SDS011;65308;50.078;14.854;2023-06-10T11:24:29;10.32;;;8.95;;
76475;SDS011;65308;50.078;14.854;2023-06-10T11:27:17;9.70;;;8.05;;
76475;SDS011;65308;50.078;14.854;2023-06-10T11:29:57;11.55;;;8.40;;
76475;SDS011;65308;50.078;14.854;2023-06-10T11:32:26;9.95;;;8.65;;
76475;SDS011;65308;50.078;14.854;2023-06-10T11:34:56;12.52;;;9.38;;
76475;SDS011;65308;50.078;14.854;2023-06-10T11:37:23;11.10;;;9.43;;
76475;SDS011;65308;50.078;14.854;2023-06-10T11:39:52;11.20;;;9.00;;
76475;SDS011;65308;50.078;14.854;2023-06-10T11:42:20;11.68;;;10.52;;
76475;SDS011;65308;50.078;14.854;2023-06-10T11:44:48;11.07;;;9.98;;
76475;SDS011;65308;50.078;14.854;2023-06-10T11:47:15;12.32;;;11.13;;
76475;SDS011;65308;50.078;14.854;2023-06-10T11:49:42;9.68;;;8.70;;
76475;SDS011;65308;50.078;14.854;2023-06-10T11:52:09;10.80;;;9.70;;
76475;SDS011;65308;50.078;14.854;2023-06-10T11:54:36;10.85;;;9.70;;
76475;SDS011;65308;50.078;14.854;2023-06-10T11:57:04;10.57;;;9.60;;
76475;SDS011;65308;50.078;14.854;2023-06-10T11:59:33;10.52;;;8.85;;
76475;SDS011;65308;50.078;14.854;2023-06-10T12:02:00;9.32;;;7.75;;
76475;SDS011;65308;50.078;14.854;2023-06-10T12:04:27;10.77;;;9.68;;
76475;SDS011;65308;50.078;14.854;2023-06-10T12:06:53;10.25;;;9.25;;
76475;SDS011;65308;50.078;14.854;2023-06-10T12:09:21;10.10;;;9.10;;
76475;SDS011;65308;50.078;14.854;2023-06-10T12:11:49;9.55;;;8.65;;
76475;SDS011;65308;50.078;14.854;2023-06-10T12:17:20;11.57;;;9.40;;
76475;SDS011;65308;50.078;14.854;2023-06-10T12:19:47;11.30;;;9.82;;
76475;SDS011;65308;50.078;14.854;2023-06-10T12:22:14;14.88;;;10.88;;
76475;SDS011;65308;50.078;14.854;2023-06-10T12:24:44;11.07;;;10.07;;
76475;SDS011;65308;50.078;14.854;2023-06-10T12:27:12;11.88;;;8.70;;
76475;SDS011;65308;50.078;14.854;2023-06-10T12:29:39;10.98;;;8.93;;
76475;SDS011;65308;50.078;14.854;2023-06-10T12:32:35;10.30;;;8.52;;
76475;SDS011;65308;50.078;14.854;2023-06-10T12:35:06;10.43;;;8.57;;
76475;SDS011;65308;50.078;14.854;2023-06-10T12:37:54;11.27;;;9.05;;
76475;SDS011;65308;50.078;14.854;2023-06-10T12:43:36;13.40;;;9.32;;
76475;SDS011;65308;50.078;14.854;2023-06-10T12:46:09;15.32;;;8.88;;
76475;SDS011;65308;50.078;14.854;2023-06-10T12:48:43;9.27;;;8.38;;
76475;SDS011;65308;50.078;14.854;2023-06-10T12:53:46;10.30;;;7.50;;
76475;SDS011;65308;50.078;14.854;2023-06-10T12:56:12;8.32;;;7.00;;
76475;SDS011;65308;50.078;14.854;2023-06-10T12:58:39;8.10;;;7.20;;
76475;SDS011;65308;50.078;14.854;2023-06-10T13:01:05;7.45;;;6.75;;
76475;SDS011;65308;50.078;14.854;2023-06-10T13:03:32;8.23;;;7.43;;
76475;SDS011;65308;50.078;14.854;2023-06-10T13:06:00;8.48;;;7.22;;
76475;SDS011;65308;50.078;14.854;2023-06-10T13:08:26;7.70;;;6.90;;
76475;SDS011;65308;50.078;14.854;2023-06-10T13:10:53;11.07;;;7.43;;
76475;SDS011;65308;50.078;14.854;2023-06-10T13:13:21;10.10;;;7.68;;
76475;SDS011;65308;50.078;14.854;2023-06-10T13:15:48;11.27;;;7.53;;
76475;SDS011;65308;50.078;14.854;2023-06-10T13:18:15;9.00;;;7.72;;
76475;SDS011;65308;50.078;14.854;2023-06-10T13:20:43;8.40;;;7.55;;
76475;SDS011;65308;50.078;14.854;2023-06-10T13:23:11;10.63;;;7.30;;
76475;SDS011;65308;50.078;14.854;2023-06-10T13:25:38;9.20;;;7.15;;
76475;SDS011;65308;50.078;14.854;2023-06-10T13:28:05;8.05;;;6.60;;
76475;SDS011;65308;50.078;14.854;2023-06-10T13:30:32;9.13;;;7.03;;
76475;SDS011;65308;50.078;14.854;2023-06-10T13:32:59;8.85;;;7.32;;
76475;SDS011;65308;50.078;14.854;2023-06-10T13:35:25;9.88;;;7.10;;
76475;SDS011;65308;50.078;14.854;2023-06-10T13:37:52;7.95;;;7.15;;
76475;SDS011;65308;50.078;14.854;2023-06-10T13:40:20;8.20;;;7.40;;
76475;SDS011;65308;50.078;14.854;2023-06-10T13:42:47;11.13;;;6.90;;
76475;SDS011;65308;50.078;14.854;2023-06-10T13:45:19;8.10;;;7.07;;
76475;SDS011;65308;50.078;14.854;2023-06-10T13:47:46;7.97;;;7.18;;
76475;SDS011;65308;50.078;14.854;2023-06-10T13:50:14;14.40;;;7.20;;
76475;SDS011;65308;50.078;14.854;2023-06-10T13:52:41;7.90;;;7.10;;
76475;SDS011;65308;50.078;14.854;2023-06-10T13:55:10;8.02;;;7.13;;
76475;SDS011;65308;50.078;14.854;2023-06-10T13:57:45;7.75;;;6.95;;
76475;SDS011;65308;50.078;14.854;2023-06-10T14:00:12;9.38;;;6.80;;
76475;SDS011;65308;50.078;14.854;2023-06-10T14:02:41;12.48;;;8.02;;
76475;SDS011;65308;50.078;14.854;2023-06-10T14:05:08;7.63;;;6.55;;
76475;SDS011;65308;50.078;14.854;2023-06-10T14:10:02;9.40;;;7.30;;
76475;SDS011;65308;50.078;14.854;2023-06-10T14:12:29;7.95;;;6.90;;
76475;SDS011;65308;50.078;14.854;2023-06-10T14:14:57;8.43;;;7.00;;
76475;SDS011;65308;50.078;14.854;2023-06-10T14:17:23;8.55;;;7.07;;
76475;SDS011;65308;50.078;14.854;2023-06-10T14:19:50;7.78;;;6.70;;
76475;SDS011;65308;50.078;14.854;2023-06-10T14:22:17;7.43;;;6.65;;
76475;SDS011;65308;50.078;14.854;2023-06-10T14:24:43;11.07;;;7.30;;
76475;SDS011;65308;50.078;14.854;2023-06-10T14:27:10;8.30;;;6.88;;
76475;SDS011;65308;50.078;14.854;2023-06-10T14:29:37;7.57;;;6.88;;
76475;SDS011;65308;50.078;14.854;2023-06-10T14:32:05;10.55;;;7.05;;
76475;SDS011;65308;50.078;14.854;2023-06-10T14:34:32;8.32;;;6.97;;
76475;SDS011;65308;50.078;14.854;2023-06-10T14:39:28;8.38;;;7.55;;
76475;SDS011;65308;50.078;14.854;2023-06-10T14:41:55;7.53;;;6.82;;
76475;SDS011;65308;50.078;14.854;2023-06-10T14:44:21;8.30;;;6.85;;
76475;SDS011;65308;50.078;14.854;2023-06-10T14:46:48;8.05;;;6.80;;
76475;SDS011;65308;50.078;14.854;2023-06-10T14:49:16;8.73;;;7.55;;
76475;SDS011;65308;50.078;14.854;2023-06-10T14:51:43;8.48;;;6.70;;
76475;SDS011;65308;50.078;14.854;2023-06-10T14:54:09;8.25;;;7.45;;
76475;SDS011;65308;50.078;14.854;2023-06-10T14:56:37;7.78;;;6.97;;
76475;SDS011;65308;50.078;14.854;2023-06-10T15:01:30;7.68;;;6.88;;
76475;SDS011;65308;50.078;14.854;2023-06-10T15:03:56;10.10;;;7.70;;
76475;SDS011;65308;50.078;14.854;2023-06-10T15:06:25;9.90;;;8.20;;
76475;SDS011;65308;50.078;14.854;2023-06-10T15:08:51;8.85;;;7.95;;